Terminal Aerodrome Forecast
Issued by NWS

Home | Current Version | Previous Version | Text Only | Print | Product List | Glossary On
Versions: 1 2 3 4 5 6 7 8 9 10 11 12
000
FTUS42 TJSJ 211139
TAFKPK
TAF
TKPK 211139Z 2112/2212 VRB05KT P6SM SCT019
     FM211450 11010KT P6SM FEW022
     FM212300 09006KT P6SM VCSH SCT019=

USA.gov is the U.S. government's official web portal to all federal, state and local government web resources and services.